Time;durP1;ratioP1;P1;durP2;ratioP2;P2;SDS_P1;SDS_P2;PMS_P1;PMS_P2;Temp;Humidity;BMP_temperature;BMP_pressure;BME280_temperature;BME280_humidity;BME280_pressure;Samples;Min_cycle;Max_cycle;Signal;HPM_P1;HPM_P2
2021/11/06 00:00:43;;;;;;;17.20;12.53;;;;;;;;;;5014993;28;20413;-48
2021/11/06 00:03:09;;;;;;;21.73;13.53;;;;;;;;;;5013623;28;20495;-48
2021/11/06 00:05:35;;;;;;;22.83;14.00;;;;;;;;;;5014825;28;20435;-48
2021/11/06 00:08:01;;;;;;;17.13;12.13;;;;;;;;;;5014403;28;20447;-48
2021/11/06 00:10:27;;;;;;;16.53;11.27;;;;;;;;;;5014075;28;20401;-48
2021/11/06 00:12:53;;;;;;;20.93;12.50;;;;;;;;;;5014041;28;20400;-48
2021/11/06 00:15:19;;;;;;;21.87;16.23;;;;;;;;;;5014485;28;20439;-48
2021/11/06 00:17:45;;;;;;;16.03;12.23;;;;;;;;;;5013125;28;20473;-48
2021/11/06 00:20:12;;;;;;;22.63;13.93;;;;;;;;;;5013392;28;20554;-48
2021/11/06 00:22:38;;;;;;;22.87;12.60;;;;;;;;;;5014533;28;20488;-48
2021/11/06 00:25:05;;;;;;;17.43;12.30;;;;;;;;;;5014348;28;20435;-48
2021/11/06 00:27:32;;;;;;;20.60;12.70;;;;;;;;;;5014211;28;20816;-49
2021/11/06 00:29:58;;;;;;;18.57;12.80;;;;;;;;;;5014406;28;20395;-48
2021/11/06 00:32:23;;;;;;;16.70;12.40;;;;;;;;;;5014354;28;20408;-50
2021/11/06 00:34:50;;;;;;;25.10;14.43;;;;;;;;;;5014246;28;20775;-51
2021/11/06 00:37:17;;;;;;;21.13;12.47;;;;;;;;;;5014081;28;20400;-48
2021/11/06 00:39:43;;;;;;;29.90;13.23;;;;;;;;;;5014077;28;20467;-48
2021/11/06 00:42:09;;;;;;;26.43;14.40;;;;;;;;;;5014117;28;20445;-48
2021/11/06 00:44:35;;;;;;;21.53;12.47;;;;;;;;;;5014180;28;20482;-48
2021/11/06 00:47:01;;;;;;;21.97;13.83;;;;;;;;;;5013916;28;20501;-48
2021/11/06 00:49:27;;;;;;;21.07;13.80;;;;;;;;;;5013767;28;20947;-48
2021/11/06 00:51:53;;;;;;;22.90;13.37;;;;;;;;;;5013916;28;20951;-48
2021/11/06 00:54:19;;;;;;;17.23;12.47;;;;;;;;;;5013832;28;20451;-50
2021/11/06 00:56:45;;;;;;;15.27;13.03;;;;;;;;;;5013771;28;20896;-50
2021/11/06 00:59:11;;;;;;;20.93;13.30;;;;;;;;;;5013660;28;20488;-48
2021/11/06 01:01:37;;;;;;;21.23;13.40;;;;;;;;;;5013844;28;20403;-48
2021/11/06 01:04:04;;;;;;;23.53;14.07;;;;;;;;;;5013748;28;20399;-48
2021/11/06 01:06:30;;;;;;;23.98;13.25;;;;;;;;;;5013396;28;20789;-48
2021/11/06 01:08:56;;;;;;;22.13;13.40;;;;;;;;;;5013443;28;20176;-50
2021/11/06 01:11:22;;;;;;;27.83;13.23;;;;;;;;;;5013528;28;20505;-48
2021/11/06 01:13:48;;;;;;;33.53;12.87;;;;;;;;;;5013575;28;20399;-48
2021/11/06 01:16:14;;;;;;;22.80;12.93;;;;;;;;;;5013330;28;20454;-48
2021/11/06 01:18:42;;;;;;;17.67;11.50;;;;;;;;;;5013267;28;20284;-48
2021/11/06 01:21:08;;;;;;;18.17;12.57;;;;;;;;;;5013343;28;20483;-48
2021/11/06 01:23:34;;;;;;;23.80;12.47;;;;;;;;;;5012976;28;20891;-48
2021/11/06 01:26:02;;;;;;;17.97;12.63;;;;;;;;;;5013240;28;20478;-48
2021/11/06 01:28:28;;;;;;;27.43;13.77;;;;;;;;;;5012908;28;20459;-48
2021/11/06 01:30:54;;;;;;;22.45;12.52;;;;;;;;;;5013284;28;20938;-48
2021/11/06 01:33:20;;;;;;;18.77;12.57;;;;;;;;;;5012004;28;20176;-48
2021/11/06 01:35:46;;;;;;;15.70;11.97;;;;;;;;;;5013064;28;20922;-48
2021/11/06 01:38:12;;;;;;;15.40;12.40;;;;;;;;;;5012882;28;20407;-48
2021/11/06 01:40:38;;;;;;;16.30;11.53;;;;;;;;;;5013068;28;20404;-49
2021/11/06 01:43:04;;;;;;;16.77;12.00;;;;;;;;;;5013051;28;20839;-51
2021/11/06 01:45:30;;;;;;;15.98;11.60;;;;;;;;;;5012899;28;20966;-48
2021/11/06 01:47:56;;;;;;;18.50;12.60;;;;;;;;;;5012636;28;20188;-48
2021/11/06 01:50:23;;;;;;;20.53;13.87;;;;;;;;;;5012823;28;20883;-48
2021/11/06 01:52:49;;;;;;;17.88;13.00;;;;;;;;;;5012860;28;20406;-49
2021/11/06 01:55:15;;;;;;;20.10;13.20;;;;;;;;;;5012701;28;20275;-51
2021/11/06 01:57:41;;;;;;;26.40;15.50;;;;;;;;;;5012473;28;20408;-50
2021/11/06 02:00:09;;;;;;;27.13;15.98;;;;;;;;;;5012747;28;20879;-49
2021/11/06 02:02:35;;;;;;;31.17;17.30;;;;;;;;;;5010841;28;20188;-51
2021/11/06 02:05:01;;;;;;;36.53;18.50;;;;;;;;;;5011955;28;20436;-48
2021/11/06 02:07:27;;;;;;;30.90;18.07;;;;;;;;;;5011032;28;20470;-48
2021/11/06 02:09:53;;;;;;;28.20;17.47;;;;;;;;;;5012472;28;20404;-48
2021/11/06 02:12:19;;;;;;;29.67;17.00;;;;;;;;;;5012545;28;20449;-48
2021/11/06 02:14:45;;;;;;;31.23;18.57;;;;;;;;;;5012273;28;20432;-48
2021/11/06 02:17:11;;;;;;;30.13;18.27;;;;;;;;;;5012369;28;20823;-48
2021/11/06 02:19:38;;;;;;;27.13;16.75;;;;;;;;;;5012179;28;20401;-48
2021/11/06 02:22:04;;;;;;;28.40;18.00;;;;;;;;;;5012411;28;20174;-48
2021/11/06 02:24:30;;;;;;;34.93;20.17;;;;;;;;;;5012250;28;20441;-48
2021/11/06 02:26:56;;;;;;;31.47;19.53;;;;;;;;;;5012228;28;20494;-48
2021/11/06 02:29:22;;;;;;;39.60;22.63;;;;;;;;;;5012041;28;20930;-48
2021/11/06 02:31:49;;;;;;;26.83;19.40;;;;;;;;;;5012762;28;20880;-48
2021/11/06 02:34:15;;;;;;;39.58;20.85;;;;;;;;;;5011310;28;20414;-49
2021/11/06 02:36:41;;;;;;;33.67;20.30;;;;;;;;;;5012163;28;20698;-48
2021/11/06 02:39:08;;;;;;;32.95;19.15;;;;;;;;;;5011952;28;20422;-48
2021/11/06 02:41:34;;;;;;;48.63;20.60;;;;;;;;;;5012210;28;20157;-48
2021/11/06 02:44:06;;;;;;;35.87;20.37;;;;;;;;;;5012164;28;20164;-47
2021/11/06 02:46:34;;;;;;;40.80;21.15;;;;;;;;;;5011949;28;20492;-48
2021/11/06 02:49:00;;;;;;;27.47;18.63;;;;;;;;;;5011906;28;20196;-50
2021/11/06 02:51:26;;;;;;;36.33;20.83;;;;;;;;;;5012059;28;20393;-48
2021/11/06 02:53:52;;;;;;;30.90;18.03;;;;;;;;;;5011987;28;20396;-47
2021/11/06 02:56:18;;;;;;;42.40;18.73;;;;;;;;;;5011911;28;20411;-48
2021/11/06 02:58:44;;;;;;;37.50;16.40;;;;;;;;;;5011706;28;20418;-48
2021/11/06 03:01:10;;;;;;;33.80;18.97;;;;;;;;;;5011855;28;20480;-48
2021/11/06 03:03:36;;;;;;;27.77;16.73;;;;;;;;;;5011970;28;20400;-48
2021/11/06 03:06:02;;;;;;;33.50;16.73;;;;;;;;;;5011823;28;20510;-48
2021/11/06 03:08:28;;;;;;;28.30;15.83;;;;;;;;;;5011459;28;20455;-48
2021/11/06 03:10:54;;;;;;;29.40;16.17;;;;;;;;;;5011887;28;20482;-50
2021/11/06 03:13:20;;;;;;;34.80;16.10;;;;;;;;;;5010598;28;20414;-49
2021/11/06 03:15:46;;;;;;;37.87;16.50;;;;;;;;;;5011488;28;20493;-48
2021/11/06 03:18:12;;;;;;;31.33;15.70;;;;;;;;;;5010243;28;20458;-48
2021/11/06 03:20:38;;;;;;;30.30;14.77;;;;;;;;;;5011817;28;20411;-50
2021/11/06 03:23:04;;;;;;;36.23;19.13;;;;;;;;;;5011714;28;20866;-48
2021/11/06 03:25:30;;;;;;;27.53;14.87;;;;;;;;;;5011666;28;20471;-48
2021/11/06 03:27:57;;;;;;;28.07;14.90;;;;;;;;;;5011382;28;20518;-48
2021/11/06 03:30:23;;;;;;;30.58;15.40;;;;;;;;;;5011608;28;20431;-48
2021/11/06 03:32:49;;;;;;;27.93;14.47;;;;;;;;;;5011693;28;20228;-48
2021/11/06 03:35:15;;;;;;;23.90;15.10;;;;;;;;;;5011691;28;20423;-48
2021/11/06 03:37:41;;;;;;;30.70;14.23;;;;;;;;;;5011329;28;20769;-48
2021/11/06 03:40:13;;;;;;;26.93;14.70;;;;;;;;;;5011611;28;20179;-48
2021/11/06 03:42:39;;;;;;;28.53;13.40;;;;;;;;;;5011540;28;20779;-48
2021/11/06 03:45:05;;;;;;;28.15;14.32;;;;;;;;;;5011660;28;20432;-47
2021/11/06 03:47:31;;;;;;;25.70;13.30;;;;;;;;;;5014869;28;20196;-48
2021/11/06 03:49:58;;;;;;;35.60;15.15;;;;;;;;;;5015244;28;20161;-48
2021/11/06 03:52:24;;;;;;;31.00;14.10;;;;;;;;;;5015218;28;20402;-47
2021/11/06 03:54:50;;;;;;;26.10;13.77;;;;;;;;;;5015050;28;20189;-47
2021/11/06 03:57:16;;;;;;;39.67;15.40;;;;;;;;;;5015014;28;20410;-47
2021/11/06 03:59:42;;;;;;;25.87;15.17;;;;;;;;;;5014841;28;20498;-47
2021/11/06 04:02:08;;;;;;;37.30;16.70;;;;;;;;;;5015121;28;20404;-47
2021/11/06 04:04:34;;;;;;;25.42;14.52;;;;;;;;;;5014845;28;20458;-47
2021/11/06 04:07:00;;;;;;;31.43;15.33;;;;;;;;;;5014713;28;20603;-48
2021/11/06 04:09:26;;;;;;;27.30;15.97;;;;;;;;;;5014579;28;20411;-48
2021/11/06 04:11:52;;;;;;;29.63;15.30;;;;;;;;;;5014692;28;20446;-48
2021/11/06 04:14:18;;;;;;;31.03;16.83;;;;;;;;;;5014438;28;20498;-48
2021/11/06 04:16:44;;;;;;;29.60;17.93;;;;;;;;;;5014657;28;20404;-49
2021/11/06 04:19:10;;;;;;;32.10;19.87;;;;;;;;;;5014424;28;20400;-51
2021/11/06 04:21:38;;;;;;;30.67;17.97;;;;;;;;;;5014536;28;20882;-48
2021/11/06 04:24:04;;;;;;;40.88;18.17;;;;;;;;;;5014672;28;20628;-48
2021/11/06 04:26:30;;;;;;;34.07;16.50;;;;;;;;;;5012909;28;20200;-47
2021/11/06 04:28:56;;;;;;;28.70;16.23;;;;;;;;;;5012858;28;20499;-48
2021/11/06 04:31:23;;;;;;;32.87;16.17;;;;;;;;;;5014569;28;20395;-48
2021/11/06 04:33:49;;;;;;;40.83;16.02;;;;;;;;;;5014356;28;20395;-48
2021/11/06 04:36:15;;;;;;;24.80;16.27;;;;;;;;;;5014189;28;20195;-48
2021/11/06 04:38:41;;;;;;;26.45;15.68;;;;;;;;;;5013967;28;20403;-48
2021/11/06 04:41:07;;;;;;;24.47;15.37;;;;;;;;;;5014170;28;20173;-48
2021/11/06 04:43:33;;;;;;;26.40;14.70;;;;;;;;;;5014133;28;20462;-48
2021/11/06 04:45:59;;;;;;;29.52;16.05;;;;;;;;;;5014096;28;20501;-47
2021/11/06 04:48:25;;;;;;;27.92;15.70;;;;;;;;;;5013756;28;20274;-48
2021/11/06 04:50:51;;;;;;;30.37;14.57;;;;;;;;;;5014006;28;20644;-47
2021/11/06 04:53:17;;;;;;;28.03;15.23;;;;;;;;;;5014017;28;20772;-48
2021/11/06 04:55:44;;;;;;;21.60;12.40;;;;;;;;;;5013779;28;20419;-47
2021/11/06 04:58:11;;;;;;;21.83;13.13;;;;;;;;;;5012852;28;20410;-48
2021/11/06 05:00:38;;;;;;;24.73;13.90;;;;;;;;;;5012593;28;20408;-51
2021/11/06 05:03:04;;;;;;;25.57;11.50;;;;;;;;;;5013817;28;20404;-48
2021/11/06 05:05:30;;;;;;;23.70;11.83;;;;;;;;;;5013662;28;20431;-48
2021/11/06 05:07:56;;;;;;;19.90;12.53;;;;;;;;;;5013331;28;20524;-47
2021/11/06 05:10:22;;;;;;;18.73;11.40;;;;;;;;;;5013603;28;20903;-49
2021/11/06 05:12:50;;;;;;;21.07;10.37;;;;;;;;;;5013592;28;20399;-49
2021/11/06 05:15:17;;;;;;;26.40;11.13;;;;;;;;;;5013408;28;20439;-48
2021/11/06 05:17:43;;;;;;;17.40;10.67;;;;;;;;;;5013273;28;20481;-48
2021/11/06 05:20:10;;;;;;;26.30;9.30;;;;;;;;;;5012226;28;20915;-48
2021/11/06 05:22:36;;;;;;;17.03;9.67;;;;;;;;;;5013452;28;20832;-48
2021/11/06 05:25:04;;;;;;;18.60;10.07;;;;;;;;;;5013320;28;20511;-48
2021/11/06 05:27:30;;;;;;;10.97;8.20;;;;;;;;;;5013029;28;20448;-48
2021/11/06 05:29:57;;;;;;;13.60;8.80;;;;;;;;;;5013340;28;20772;-48
2021/11/06 05:32:23;;;;;;;16.27;9.00;;;;;;;;;;5013360;28;20430;-50
2021/11/06 05:34:49;;;;;;;16.20;8.90;;;;;;;;;;5013748;28;20420;-50
2021/11/06 05:37:15;;;;;;;13.00;8.07;;;;;;;;;;5013080;28;20435;-51
2021/11/06 05:39:41;;;;;;;16.70;9.07;;;;;;;;;;5013032;28;20514;-48
2021/11/06 05:42:07;;;;;;;15.10;9.07;;;;;;;;;;5013092;28;20412;-48
2021/11/06 05:44:33;;;;;;;13.57;7.90;;;;;;;;;;5012985;28;20405;-48
2021/11/06 05:46:59;;;;;;;15.90;8.90;;;;;;;;;;5012861;28;20410;-48
2021/11/06 05:49:25;;;;;;;16.00;9.43;;;;;;;;;;5012687;28;20767;-48
2021/11/06 05:51:51;;;;;;;13.27;9.90;;;;;;;;;;5012900;28;20831;-48
2021/11/06 05:54:17;;;;;;;17.53;10.10;;;;;;;;;;5012786;28;20407;-48
2021/11/06 05:56:43;;;;;;;16.93;10.70;;;;;;;;;;5012770;28;20906;-48
2021/11/06 05:59:09;;;;;;;10.67;8.07;;;;;;;;;;5012559;28;20492;-48
2021/11/06 06:01:36;;;;;;;15.33;9.70;;;;;;;;;;5012736;28;20845;-48
2021/11/06 06:04:02;;;;;;;19.77;9.90;;;;;;;;;;5012745;28;20410;-48
2021/11/06 06:06:28;;;;;;;18.50;9.67;;;;;;;;;;5012543;28;20829;-48
2021/11/06 06:08:54;;;;;;;17.03;10.33;;;;;;;;;;5012338;28;20518;-48
2021/11/06 06:11:20;;;;;;;14.90;10.23;;;;;;;;;;5012795;28;20780;-48
2021/11/06 06:13:46;;;;;;;12.77;9.20;;;;;;;;;;5012798;28;20395;-48
2021/11/06 06:16:12;;;;;;;20.27;11.10;;;;;;;;;;5012401;28;20445;-50
2021/11/06 06:18:38;;;;;;;18.07;10.10;;;;;;;;;;5012084;28;20399;-48
2021/11/06 06:21:04;;;;;;;18.02;9.15;;;;;;;;;;5012418;28;20985;-48
2021/11/06 06:23:30;;;;;;;17.30;10.87;;;;;;;;;;5012454;28;20169;-48
2021/11/06 06:25:56;;;;;;;24.70;11.00;;;;;;;;;;5012301;28;20428;-48
2021/11/06 06:28:22;;;;;;;22.50;11.17;;;;;;;;;;5012007;28;20451;-48
2021/11/06 06:30:47;;;;;;;16.57;9.93;;;;;;;;;;5012323;28;20938;-48
2021/11/06 06:33:13;;;;;;;17.80;9.83;;;;;;;;;;5012234;28;20496;-48
2021/11/06 06:35:39;;;;;;;17.37;10.73;;;;;;;;;;5012221;28;20432;-48
2021/11/06 06:38:05;;;;;;;28.63;11.47;;;;;;;;;;5011939;28;20971;-48
2021/11/06 06:40:31;;;;;;;21.57;10.70;;;;;;;;;;5012145;28;20411;-48
2021/11/06 06:42:58;;;;;;;20.57;10.50;;;;;;;;;;5012154;28;20426;-49
2021/11/06 06:45:24;;;;;;;16.47;10.47;;;;;;;;;;5012095;28;20900;-48
2021/11/06 06:47:50;;;;;;;24.77;10.50;;;;;;;;;;5011759;28;20490;-48
2021/11/06 06:50:17;;;;;;;22.73;10.67;;;;;;;;;;5011938;28;20400;-48
2021/11/06 06:52:43;;;;;;;17.00;9.67;;;;;;;;;;5012056;28;20747;-48
2021/11/06 06:55:09;;;;;;;15.50;10.17;;;;;;;;;;5011977;28;20503;-48
2021/11/06 06:57:35;;;;;;;20.47;10.50;;;;;;;;;;5011664;28;20407;-48
2021/11/06 07:00:01;;;;;;;21.47;10.47;;;;;;;;;;5012052;28;20435;-48
2021/11/06 07:02:27;;;;;;;16.57;9.97;;;;;;;;;;5011943;28;20414;-48
2021/11/06 07:04:53;;;;;;;20.03;9.43;;;;;;;;;;5011660;28;20436;-48
2021/11/06 07:07:19;;;;;;;19.33;8.90;;;;;;;;;;5011744;28;20450;-49
2021/11/06 07:09:45;;;;;;;16.47;9.80;;;;;;;;;;5011707;28;20818;-51
2021/11/06 07:12:11;;;;;;;18.37;8.67;;;;;;;;;;5011885;28;20926;-48
2021/11/06 07:14:37;;;;;;;11.40;8.00;;;;;;;;;;5011642;28;20539;-48
2021/11/06 07:17:04;;;;;;;14.10;7.70;;;;;;;;;;5011697;28;20496;-49
2021/11/06 07:19:30;;;;;;;17.60;8.40;;;;;;;;;;5011555;28;20917;-50
2021/11/06 07:21:56;;;;;;;11.87;7.60;;;;;;;;;;5014929;28;20407;-48
2021/11/06 07:24:22;;;;;;;15.80;8.30;;;;;;;;;;5015645;28;20411;-48
2021/11/06 07:26:48;;;;;;;11.87;7.67;;;;;;;;;;5015481;28;20403;-48
2021/11/06 07:29:14;;;;;;;16.53;8.83;;;;;;;;;;5014787;28;20411;-48
2021/11/06 07:31:40;;;;;;;12.90;8.77;;;;;;;;;;5015137;28;20407;-51
2021/11/06 07:34:06;;;;;;;13.30;7.70;;;;;;;;;;5014588;28;20892;-48
2021/11/06 07:36:32;;;;;;;16.67;8.17;;;;;;;;;;5014741;28;20477;-48
2021/11/06 07:38:58;;;;;;;13.77;8.90;;;;;;;;;;5014486;28;20875;-48
2021/11/06 07:41:24;;;;;;;10.40;7.67;;;;;;;;;;5014780;28;20420;-50
2021/11/06 07:43:51;;;;;;;14.60;7.80;;;;;;;;;;5014568;28;20408;-48
2021/11/06 07:46:17;;;;;;;18.80;8.80;;;;;;;;;;5014865;28;20464;-48
2021/11/06 07:48:43;;;;;;;13.20;8.20;;;;;;;;;;5013429;28;20449;-48
2021/11/06 07:51:10;;;;;;;8.00;6.70;;;;;;;;;;5015203;28;20401;-48
2021/11/06 07:53:36;;;;;;;10.93;7.23;;;;;;;;;;5015120;28;20436;-48
2021/11/06 07:56:02;;;;;;;9.90;7.17;;;;;;;;;;5014886;28;20504;-49
2021/11/06 07:58:28;;;;;;;13.63;7.20;;;;;;;;;;5014779;28;20489;-49
2021/11/06 08:00:56;;;;;;;11.77;8.10;;;;;;;;;;5014908;28;21018;-48
2021/11/06 08:03:22;;;;;;;11.10;7.80;;;;;;;;;;5014970;28;20472;-48
2021/11/06 08:05:48;;;;;;;9.37;6.87;;;;;;;;;;5014906;28;20437;-48
2021/11/06 08:08:14;;;;;;;10.93;7.87;;;;;;;;;;5014505;28;20463;-48
2021/11/06 08:10:40;;;;;;;12.50;7.37;;;;;;;;;;5014826;28;20412;-48
2021/11/06 08:13:07;;;;;;;12.40;7.70;;;;;;;;;;5014815;28;20468;-48
2021/11/06 08:15:33;;;;;;;11.73;6.50;;;;;;;;;;5014612;28;20450;-48
2021/11/06 08:17:59;;;;;;;11.33;7.37;;;;;;;;;;5014357;28;20398;-48
2021/11/06 08:20:25;;;;;;;9.13;6.73;;;;;;;;;;5014680;28;20433;-48
2021/11/06 08:22:54;;;;;;;13.87;7.70;;;;;;;;;;5014572;28;20483;-48
2021/11/06 08:25:21;;;;;;;10.33;7.60;;;;;;;;;;5014457;28;20430;-50
2021/11/06 08:27:48;;;;;;;10.40;7.37;;;;;;;;;;5014180;28;20858;-48
2021/11/06 08:30:15;;;;;;;9.70;7.40;;;;;;;;;;5014366;28;20441;-50
2021/11/06 08:32:42;;;;;;;10.20;6.57;;;;;;;;;;5013258;28;20408;-48
2021/11/06 08:35:09;;;;;;;12.53;8.63;;;;;;;;;;5014287;28;20453;-48
2021/11/06 08:37:35;;;;;;;8.43;7.20;;;;;;;;;;5014035;28;20933;-48
2021/11/06 08:40:02;;;;;;;9.43;7.00;;;;;;;;;;5014250;28;20405;-48
2021/11/06 08:42:28;;;;;;;10.00;6.30;;;;;;;;;;5014240;28;20410;-48
2021/11/06 08:44:55;;;;;;;9.63;7.23;;;;;;;;;;5014016;28;20446;-48
2021/11/06 08:47:21;;;;;;;8.47;7.13;;;;;;;;;;5013928;28;20537;-48
2021/11/06 08:49:47;;;;;;;9.47;7.30;;;;;;;;;;5018837;28;20404;-51
2021/11/06 08:52:18;;;;;;;8.30;7.10;;;;;;;;;;5018202;28;20414;-51
2021/11/06 08:54:44;;;;;;;7.43;6.37;;;;;;;;;;5016072;28;20442;-51
2021/11/06 08:57:10;;;;;;;9.63;6.43;;;;;;;;;;5016554;28;20399;-50
2021/11/06 08:59:36;;;;;;;9.37;6.33;;;;;;;;;;5014914;28;20414;-51
2021/11/06 09:02:02;;;;;;;8.00;6.20;;;;;;;;;;5014434;28;20462;-51
2021/11/06 09:04:28;;;;;;;8.33;6.10;;;;;;;;;;5014023;28;20461;-50
2021/11/06 09:06:55;;;;;;;10.43;6.00;;;;;;;;;;5013675;28;20657;-51
2021/11/06 09:09:22;;;;;;;9.27;5.97;;;;;;;;;;5013698;28;20762;-51
2021/11/06 09:11:51;;;;;;;7.23;5.63;;;;;;;;;;5013594;28;20822;-51
2021/11/06 09:14:17;;;;;;;9.80;5.50;;;;;;;;;;5013565;28;20527;-52
2021/11/06 09:16:44;;;;;;;7.50;5.67;;;;;;;;;;5013555;28;20422;-51
2021/11/06 09:19:10;;;;;;;11.13;6.00;;;;;;;;;;5013462;28;20401;-51
2021/11/06 09:21:36;;;;;;;7.70;6.03;;;;;;;;;;5013743;28;20759;-51
2021/11/06 09:24:03;;;;;;;12.27;6.10;;;;;;;;;;5013839;28;20445;-52
2021/11/06 09:26:36;;;;;;;11.50;6.20;;;;;;;;;;5014447;28;20454;-51
2021/11/06 09:29:03;;;;;;;8.97;6.50;;;;;;;;;;5016057;28;20456;-51
2021/11/06 09:31:29;;;;;;;9.17;6.27;;;;;;;;;;5016082;28;20437;-51
2021/11/06 09:33:56;;;;;;;8.23;6.10;;;;;;;;;;5015504;28;20715;-51
2021/11/06 09:36:21;;;;;;;11.77;6.33;;;;;;;;;;5015228;28;20428;-51
2021/11/06 09:38:47;;;;;;;9.03;6.10;;;;;;;;;;5016188;28;20410;-51
2021/11/06 09:41:16;;;;;;;8.77;6.37;;;;;;;;;;5016662;28;20415;-51
2021/11/06 09:43:42;;;;;;;8.20;6.27;;;;;;;;;;5015641;28;20414;-51
2021/11/06 09:46:09;;;;;;;6.60;5.80;;;;;;;;;;5015464;28;20863;-51
2021/11/06 09:48:36;;;;;;;11.27;5.60;;;;;;;;;;5014636;28;20458;-51
2021/11/06 09:51:02;;;;;;;9.33;6.37;;;;;;;;;;5014425;28;20836;-51
2021/11/06 09:53:29;;;;;;;10.53;5.70;;;;;;;;;;5014093;28;20438;-51
2021/11/06 09:55:55;;;;;;;9.77;6.43;;;;;;;;;;5013849;28;20931;-51
2021/11/06 09:58:21;;;;;;;9.07;6.00;;;;;;;;;;5013848;28;20853;-51
2021/11/06 10:00:47;;;;;;;7.10;5.70;;;;;;;;;;5013925;28;20419;-51
2021/11/06 10:03:14;;;;;;;8.97;6.10;;;;;;;;;;5013768;28;20412;-51
2021/11/06 10:05:49;;;;;;;7.40;5.50;;;;;;;;;;5014621;28;20431;-51
2021/11/06 10:08:22;;;;;;;7.70;5.30;;;;;;;;;;5010525;28;20540;-49
2021/11/06 10:10:49;;;;;;;8.40;6.20;;;;;;;;;;5006989;28;20788;-48
2021/11/06 10:13:15;;;;;;;7.10;5.20;;;;;;;;;;4992914;28;20407;-49
2021/11/06 10:15:45;;;;;;;9.33;7.03;;;;;;;;;;4992746;28;20443;-49
2021/11/06 10:18:15;;;;;;;8.33;5.80;;;;;;;;;;5010906;28;20406;-51
2021/11/06 10:20:41;;;;;;;6.87;5.30;;;;;;;;;;5030594;28;20406;-48
2021/11/06 10:23:08;;;;;;;7.97;5.63;;;;;;;;;;5032367;28;20750;-48
2021/11/06 10:25:37;;;;;;;8.50;5.87;;;;;;;;;;5031898;28;20480;-50
2021/11/06 10:28:05;;;;;;;7.00;5.50;;;;;;;;;;5030282;28;20454;-49
2021/11/06 10:30:33;;;;;;;6.70;4.87;;;;;;;;;;5032022;28;20412;-48
2021/11/06 10:32:59;;;;;;;8.30;5.93;;;;;;;;;;5031836;28;20397;-49
2021/11/06 10:35:26;;;;;;;7.47;5.67;;;;;;;;;;5031701;28;20423;-49
2021/11/06 10:37:57;;;;;;;8.53;5.83;;;;;;;;;;5031692;28;20699;-48
2021/11/06 10:40:30;;;;;;;7.93;5.17;;;;;;;;;;5032222;28;20408;-48
2021/11/06 10:42:56;;;;;;;7.83;5.40;;;;;;;;;;5031854;28;20405;-49
2021/11/06 10:45:23;;;;;;;6.37;4.73;;;;;;;;;;5011206;28;20444;-51
2021/11/06 10:48:01;;;;;;;5.80;5.30;;;;;;;;;;5011424;28;20443;-51
2021/11/06 10:50:36;;;;;;;6.17;5.57;;;;;;;;;;5011906;28;20399;-51
2021/11/06 10:53:03;;;;;;;4.47;4.07;;;;;;;;;;5013763;28;20398;-52
2021/11/06 10:55:33;;;;;;;6.07;5.07;;;;;;;;;;5013433;28;20786;-51
2021/11/06 10:57:58;;;;;;;5.40;4.90;;;;;;;;;;5012969;28;20432;-51
2021/11/06 11:00:25;;;;;;;5.30;4.80;;;;;;;;;;5012849;28;20468;-51
2021/11/06 11:02:51;;;;;;;5.43;4.90;;;;;;;;;;5013322;28;20421;-51
2021/11/06 11:05:32;;;;;;;6.90;4.80;;;;;;;;;;5013950;28;20437;-51
2021/11/06 11:08:01;;;;;;;7.17;4.63;;;;;;;;;;5013044;28;20431;-52
2021/11/06 11:10:28;;;;;;;5.63;4.33;;;;;;;;;;5012912;28;20374;-52
2021/11/06 11:13:09;;;;;;;5.87;5.10;;;;;;;;;;5012772;28;20420;-52
2021/11/06 11:15:36;;;;;;;5.33;4.80;;;;;;;;;;5012558;28;20422;-50
2021/11/06 11:18:02;;;;;;;5.40;4.90;;;;;;;;;;5012415;28;20402;-51
2021/11/06 11:20:30;;;;;;;7.40;4.87;;;;;;;;;;5012612;28;20412;-51
2021/11/06 11:23:12;;;;;;;6.53;5.43;;;;;;;;;;5012793;28;20379;-52
2021/11/06 11:25:42;;;;;;;6.53;4.80;;;;;;;;;;5012415;28;20429;-51
2021/11/06 11:28:09;;;;;;;13.10;5.57;;;;;;;;;;5011036;28;20665;-52
2021/11/06 11:30:36;;;;;;;5.03;4.53;;;;;;;;;;5012829;28;20958;-51
2021/11/06 11:33:02;;;;;;;7.43;5.30;;;;;;;;;;5012781;28;20844;-52
2021/11/06 11:35:28;;;;;;;5.10;4.60;;;;;;;;;;5013300;28;20403;-50
2021/11/06 11:37:58;;;;;;;5.00;4.33;;;;;;;;;;5011631;28;20387;-50
2021/11/06 11:40:32;;;;;;;4.30;3.97;;;;;;;;;;5010246;28;20884;-49
2021/11/06 11:43:11;;;;;;;6.83;4.60;;;;;;;;;;5011705;28;20413;-50
2021/11/06 11:45:45;;;;;;;4.97;4.50;;;;;;;;;;5011516;28;20533;-49
2021/11/06 11:48:13;;;;;;;4.57;4.17;;;;;;;;;;5010945;28;20813;-49
2021/11/06 11:50:41;;;;;;;10.33;4.23;;;;;;;;;;5011451;28;20373;-49
2021/11/06 11:53:09;;;;;;;5.23;4.60;;;;;;;;;;5011411;28;20419;-49
2021/11/06 11:55:44;;;;;;;10.30;4.07;;;;;;;;;;5011556;28;20811;-51
2021/11/06 11:58:15;;;;;;;4.93;3.67;;;;;;;;;;5011226;28;20445;-50
2021/11/06 12:00:43;;;;;;;4.47;4.10;;;;;;;;;;5011341;28;20878;-50
2021/11/06 12:03:10;;;;;;;9.00;4.70;;;;;;;;;;5011409;28;20384;-51
2021/11/06 12:05:37;;;;;;;5.80;4.20;;;;;;;;;;5011300;28;20424;-50
2021/11/06 12:08:26;;;;;;;5.20;4.20;;;;;;;;;;5014015;28;20430;-50
2021/11/06 12:11:00;;;;;;;5.13;4.07;;;;;;;;;;5004595;28;20418;-50
2021/11/06 12:13:30;;;;;;;4.63;4.23;;;;;;;;;;5014767;28;20928;-51
2021/11/06 12:16:13;;;;;;;4.80;4.10;;;;;;;;;;5014464;28;20439;-50
2021/11/06 12:18:45;;;;;;;6.87;4.30;;;;;;;;;;5014286;28;20372;-50
2021/11/06 12:21:14;;;;;;;4.70;4.13;;;;;;;;;;5014446;28;20792;-49
2021/11/06 12:23:41;;;;;;;5.37;4.73;;;;;;;;;;5014446;28;20399;-49
2021/11/06 12:26:14;;;;;;;4.67;4.23;;;;;;;;;;5014378;28;20518;-51
2021/11/06 12:28:40;;;;;;;5.53;4.00;;;;;;;;;;5014065;28;20453;-49
2021/11/06 12:31:25;;;;;;;5.50;4.00;;;;;;;;;;5014470;28;20402;-49
2021/11/06 12:33:51;;;;;;;5.23;3.53;;;;;;;;;;5014323;28;20775;-51
2021/11/06 12:36:21;;;;;;;4.30;3.73;;;;;;;;;;5014031;28;20411;-51
2021/11/06 12:38:48;;;;;;;7.73;3.80;;;;;;;;;;5014153;28;20370;-49
2021/11/06 12:41:14;;;;;;;7.73;3.60;;;;;;;;;;5014071;28;20378;-50
2021/11/06 12:43:51;;;;;;;7.10;4.80;;;;;;;;;;5014226;28;20407;-50
2021/11/06 12:46:27;;;;;;;4.63;3.17;;;;;;;;;;5014066;28;20534;-50
2021/11/06 12:48:55;;;;;;;4.93;4.40;;;;;;;;;;5013871;28;20805;-49
2021/11/06 12:51:22;;;;;;;3.83;3.40;;;;;;;;;;5014014;28;20402;-52
2021/11/06 12:53:50;;;;;;;3.70;3.40;;;;;;;;;;5010472;28;20857;-49
2021/11/06 12:56:16;;;;;;;4.40;3.50;;;;;;;;;;5011250;28;20430;-49
2021/11/06 12:58:43;;;;;;;5.93;3.30;;;;;;;;;;5013692;28;20396;-49
2021/11/06 13:01:13;;;;;;;4.67;3.30;;;;;;;;;;5013637;28;20924;-50
2021/11/06 13:03:43;;;;;;;3.60;3.30;;;;;;;;;;5013799;28;20406;-49
2021/11/06 13:06:18;;;;;;;3.67;3.17;;;;;;;;;;5013616;28;20430;-49
2021/11/06 13:09:00;;;;;;;3.63;3.03;;;;;;;;;;5013298;28;20838;-50
2021/11/06 13:11:42;;;;;;;3.57;2.60;;;;;;;;;;5013611;28;20405;-51
2021/11/06 13:14:08;;;;;;;4.40;2.40;;;;;;;;;;5013899;28;20448;-51
2021/11/06 13:16:34;;;;;;;2.70;2.50;;;;;;;;;;5011822;28;20993;-50
2021/11/06 13:19:00;;;;;;;3.13;2.60;;;;;;;;;;5011683;28;20403;-50
2021/11/06 13:21:26;;;;;;;2.83;2.30;;;;;;;;;;5013467;28;20442;-50
2021/11/06 13:23:55;;;;;;;3.40;2.13;;;;;;;;;;5012179;28;20414;-50
2021/11/06 13:26:21;;;;;;;2.33;2.10;;;;;;;;;;5013147;28;20431;-50
2021/11/06 13:28:53;;;;;;;3.83;2.20;;;;;;;;;;5013181;28;20472;-52
2021/11/06 13:31:19;;;;;;;7.33;2.87;;;;;;;;;;5013084;28;20431;-51
2021/11/06 13:33:47;;;;;;;2.47;2.27;;;;;;;;;;5013238;28;20881;-50
2021/11/06 13:36:14;;;;;;;5.30;2.40;;;;;;;;;;5013186;28;20429;-49
2021/11/06 13:38:47;;;;;;;2.00;1.90;;;;;;;;;;5012696;28;20374;-52
2021/11/06 13:41:13;;;;;;;2.70;2.17;;;;;;;;;;5013148;28;20478;-49
2021/11/06 13:43:42;;;;;;;2.40;2.20;;;;;;;;;;5013161;28;20895;-50
2021/11/06 13:46:14;;;;;;;1.97;1.87;;;;;;;;;;5012971;28;20438;-49
2021/11/06 13:48:48;;;;;;;3.50;2.57;;;;;;;;;;5012723;28;20785;-49
2021/11/06 13:51:19;;;;;;;2.73;2.30;;;;;;;;;;5012844;28;20429;-49
2021/11/06 13:53:56;;;;;;;3.77;3.30;;;;;;;;;;5012948;28;20455;-49
2021/11/06 13:56:28;;;;;;;2.10;1.90;;;;;;;;;;5012714;28;20425;-50
2021/11/06 13:58:55;;;;;;;3.03;2.73;;;;;;;;;;5012626;28;20859;-49
2021/11/06 14:01:23;;;;;;;4.40;2.43;;;;;;;;;;5012699;28;20415;-49
2021/11/06 14:03:49;;;;;;;3.83;2.07;;;;;;;;;;5012761;28;20508;-49
2021/11/06 14:06:15;;;;;;;2.17;1.97;;;;;;;;;;5012617;28;20850;-49
2021/11/06 14:08:41;;;;;;;2.33;2.03;;;;;;;;;;5012240;28;20458;-49
2021/11/06 14:11:07;;;;;;;7.10;1.90;;;;;;;;;;5012651;28;20488;-49
2021/11/06 14:13:35;;;;;;;2.10;1.90;;;;;;;;;;5012678;28;20922;-49
2021/11/06 14:16:13;;;;;;;3.70;1.90;;;;;;;;;;5012374;28;20444;-49
2021/11/06 14:18:42;;;;;;;3.27;1.73;;;;;;;;;;5012252;28;20795;-50
2021/11/06 14:21:15;;;;;;;1.60;1.50;;;;;;;;;;5012437;28;20417;-50
2021/11/06 14:23:43;;;;;;;3.10;1.97;;;;;;;;;;5012514;28;20414;-49
2021/11/06 14:26:19;;;;;;;2.33;1.90;;;;;;;;;;5012349;28;20844;-49
2021/11/06 14:28:53;;;;;;;1.97;1.87;;;;;;;;;;5011864;28;20446;-49